createdAt,value
2023-02-15T00:05:09.052Z,42.80
2023-02-15T00:07:36.831Z,55.85
2023-02-15T00:10:05.252Z,53.70
2023-02-15T00:12:33.014Z,51.42
2023-02-15T00:15:00.614Z,50.83
2023-02-15T00:17:29.497Z,51.85
2023-02-15T00:19:59.384Z,57.35
2023-02-15T00:22:27.541Z,50.88
2023-02-15T00:24:55.502Z,52.20
2023-02-15T00:27:27.329Z,53.42
2023-02-15T00:29:55.050Z,59.40
2023-02-15T00:32:22.530Z,57.38
2023-02-15T00:34:50.410Z,51.67
2023-02-15T00:37:18.026Z,49.58
2023-02-15T00:39:48.497Z,51.72
2023-02-15T00:42:17.301Z,49.78
2023-02-15T00:44:46.022Z,52.60
2023-02-15T00:47:14.987Z,55.63
2023-02-15T00:49:42.885Z,51.65
2023-02-15T00:52:12.397Z,47.30
2023-02-15T00:54:40.611Z,45.10
2023-02-15T00:57:08.427Z,41.97
2023-02-15T00:59:35.920Z,44.47
2023-02-15T01:03:27.497Z,43.35
2023-02-15T01:05:55.625Z,45.97
2023-02-15T01:08:23.145Z,45.90
2023-02-15T01:10:51.307Z,51.40
2023-02-15T01:13:19.485Z,52.47
2023-02-15T01:15:50.205Z,42.63
2023-02-15T01:18:18.407Z,47.00
2023-02-15T01:20:48.693Z,42.85
2023-02-15T01:23:17.312Z,45.53
2023-02-15T01:28:16.565Z,43.65
2023-02-15T01:30:45.613Z,44.88
2023-02-15T01:33:19.209Z,41.72
2023-02-15T01:35:48.318Z,42.42
2023-02-15T01:38:17.401Z,42.20
2023-02-15T01:40:46.032Z,41.03
2023-02-15T01:43:17.153Z,43.20
2023-02-15T01:45:47.563Z,51.08
2023-02-15T01:50:46.435Z,52.97
2023-02-15T01:53:32.294Z,48.08
2023-02-15T01:56:16.341Z,51.85
2023-02-15T01:58:48.512Z,48.28
2023-02-15T02:01:18.409Z,53.65
2023-02-15T02:04:05.192Z,50.95
2023-02-15T02:06:33.930Z,50.53
2023-02-15T02:09:02.960Z,49.08
2023-02-15T02:11:32.906Z,52.25
2023-02-15T02:14:00.780Z,47.25
2023-02-15T02:16:34.560Z,50.83
2023-02-15T02:19:21.122Z,54.90
2023-02-15T02:22:09.786Z,53.60
2023-02-15T02:24:48.607Z,45.35
2023-02-15T02:27:29.404Z,47.10
2023-02-15T02:32:47.543Z,46.60
2023-02-15T02:35:42.673Z,47.10
2023-02-15T02:38:30.384Z,47.47
2023-02-15T02:41:06.557Z,51.17
2023-02-15T02:43:38.161Z,48.42
2023-02-15T02:46:12.227Z,47.85
2023-02-15T02:48:40.989Z,50.75
2023-02-15T02:51:08.611Z,46.17
2023-02-15T02:53:36.300Z,58.53
2023-02-15T02:56:04.289Z,48.30
2023-02-15T02:58:42.824Z,49.20
2023-02-15T03:01:22.992Z,55.42
2023-02-15T03:03:56.483Z,50.35
2023-02-15T03:06:30.701Z,55.40
2023-02-15T03:09:03.201Z,46.97
2023-02-15T03:11:31.653Z,54.38
2023-02-15T03:13:59.827Z,48.85
2023-02-15T03:16:27.957Z,47.85
2023-02-15T03:19:16.649Z,47.65
2023-02-15T03:22:10.564Z,55.20
2023-02-15T03:24:40.221Z,45.38
2023-02-15T03:27:10.456Z,54.05
2023-02-15T03:29:39.190Z,48.55
2023-02-15T03:32:09.088Z,52.17
2023-02-15T03:34:36.768Z,52.05
2023-02-15T03:37:08.279Z,55.05
2023-02-15T03:39:52.428Z,54.05
2023-02-15T03:42:34.943Z,50.08
2023-02-15T03:45:06.588Z,49.78
2023-02-15T03:47:37.184Z,51.03
2023-02-15T03:50:27.824Z,50.78
2023-02-15T03:52:57.723Z,54.80
2023-02-15T03:55:25.488Z,56.78
2023-02-15T03:58:15.291Z,55.00
2023-02-15T04:01:03.520Z,53.35
2023-02-15T04:03:38.013Z,52.38
2023-02-15T04:06:05.762Z,56.63
2023-02-15T04:08:59.692Z,55.67
2023-02-15T04:11:27.263Z,56.40
2023-02-15T04:13:57.704Z,47.58
2023-02-15T04:16:26.065Z,52.75
2023-02-15T04:19:12.649Z,50.85
2023-02-15T04:22:03.318Z,56.95
2023-02-15T04:24:50.452Z,46.47
2023-02-15T04:27:22.464Z,49.55
2023-02-15T04:29:50.951Z,56.38
2023-02-15T04:32:19.136Z,55.88
2023-02-15T04:34:46.840Z,50.65
2023-02-15T04:37:17.628Z,50.80
2023-02-15T04:39:46.502Z,52.47
2023-02-15T04:42:16.216Z,52.33
2023-02-15T04:44:45.194Z,53.28
2023-02-15T04:47:14.402Z,52.63
2023-02-15T04:49:42.059Z,52.72
2023-02-15T04:52:09.835Z,55.15
2023-02-15T04:54:37.692Z,48.90
2023-02-15T04:57:07.878Z,51.30
2023-02-15T04:59:35.403Z,56.70
2023-02-15T05:02:02.974Z,56.58
2023-02-15T05:04:30.775Z,50.60
2023-02-15T05:06:58.257Z,53.28
2023-02-15T05:09:25.860Z,55.55
2023-02-15T05:11:53.651Z,52.50
2023-02-15T05:14:21.287Z,55.90
2023-02-15T05:16:49.091Z,53.53
2023-02-15T05:19:16.938Z,56.47
2023-02-15T05:21:45.900Z,57.78
2023-02-15T05:24:33.917Z,57.72
2023-02-15T05:27:19.824Z,57.42
2023-02-15T05:29:47.810Z,56.80
2023-02-15T05:32:17.312Z,53.45
2023-02-15T05:34:46.236Z,54.00
2023-02-15T05:37:14.377Z,53.47
2023-02-15T05:39:41.978Z,60.58
2023-02-15T05:42:09.372Z,53.85
2023-02-15T05:44:37.019Z,58.15
2023-02-15T05:47:05.640Z,58.47
2023-02-15T05:49:33.312Z,57.10
2023-02-15T05:52:01.070Z,58.17
2023-02-15T05:54:28.792Z,57.42
2023-02-15T05:56:56.365Z,59.00
2023-02-15T05:59:24.050Z,58.80
2023-02-15T06:01:51.748Z,57.38
2023-02-15T06:04:19.572Z,58.60
2023-02-15T06:06:47.421Z,56.35
2023-02-15T06:09:19.261Z,65.45
2023-02-15T06:11:47.302Z,59.10
2023-02-15T06:14:18.385Z,57.33
2023-02-15T06:16:47.355Z,60.38
2023-02-15T06:19:17.686Z,57.28
2023-02-15T06:26:44.162Z,60.88
2023-02-15T06:29:12.406Z,54.85
2023-02-15T06:31:40.142Z,61.58
2023-02-15T06:34:08.458Z,55.85
2023-02-15T06:36:36.663Z,69.53
2023-02-15T06:39:05.108Z,64.25
2023-02-15T06:41:32.549Z,63.60
2023-02-15T06:44:00.865Z,65.40
2023-02-15T06:46:28.550Z,69.43
2023-02-15T06:48:56.884Z,70.65
2023-02-15T06:51:24.649Z,64.85
2023-02-15T06:53:52.079Z,65.95
2023-02-15T06:56:19.564Z,67.53
2023-02-15T06:58:47.572Z,69.30
2023-02-15T07:01:15.445Z,74.28
2023-02-15T07:03:46.405Z,60.47
2023-02-15T07:06:14.343Z,66.28
2023-02-15T07:08:41.825Z,66.13
2023-02-15T07:11:28.453Z,69.18
2023-02-15T07:13:56.018Z,64.53
2023-02-15T07:16:23.535Z,61.05
2023-02-15T07:18:51.150Z,63.58
2023-02-15T07:21:18.857Z,66.47
2023-02-15T07:23:46.584Z,70.22
2023-02-15T07:26:15.407Z,67.18
2023-02-15T07:28:42.973Z,65.70
2023-02-15T07:31:11.901Z,64.60
2023-02-15T07:33:40.105Z,77.10
2023-02-15T07:36:08.023Z,66.75
2023-02-15T07:38:39.500Z,70.40
2023-02-15T07:41:12.305Z,73.85
2023-02-15T07:43:42.514Z,72.22
2023-02-15T07:46:15.032Z,75.80
2023-02-15T07:48:44.014Z,76.95
2023-02-15T07:51:13.031Z,73.32
2023-02-15T07:53:42.216Z,78.10
2023-02-15T07:56:13.012Z,76.45
2023-02-15T07:58:54.021Z,74.15
2023-02-15T08:01:27.361Z,72.97
2023-02-15T08:03:55.664Z,86.75
2023-02-15T08:06:25.413Z,71.60
2023-02-15T08:08:53.181Z,84.87
2023-02-15T08:11:34.138Z,80.22
2023-02-15T08:14:09.225Z,77.35
2023-02-15T08:16:43.029Z,77.70
2023-02-15T08:19:16.090Z,80.03
2023-02-15T08:21:48.489Z,80.78
2023-02-15T08:24:17.083Z,81.93
2023-02-15T08:26:48.785Z,78.60
2023-02-15T08:29:17.732Z,77.15
2023-02-15T08:31:47.854Z,77.70
2023-02-15T08:34:17.752Z,86.55
2023-02-15T08:36:50.829Z,83.80
2023-02-15T08:39:19.081Z,77.57
2023-02-15T08:41:50.148Z,80.45
2023-02-15T08:44:18.967Z,85.18
2023-02-15T08:46:48.978Z,80.35
2023-02-15T08:49:21.186Z,93.80
2023-02-15T08:51:49.731Z,89.13
2023-02-15T08:54:19.977Z,88.45
2023-02-15T08:56:48.567Z,85.35
2023-02-15T08:59:18.227Z,89.68
2023-02-15T09:01:48.096Z,78.90
2023-02-15T09:04:17.245Z,81.40
2023-02-15T09:06:48.095Z,86.60
2023-02-15T09:09:17.701Z,78.07
2023-02-15T09:11:48.327Z,85.03
2023-02-15T09:14:22.265Z,85.95
2023-02-15T09:16:52.017Z,77.90
2023-02-15T09:19:20.672Z,79.88
2023-02-15T09:21:50.788Z,80.72
2023-02-15T09:24:19.200Z,80.40
2023-02-15T09:26:49.233Z,74.80
2023-02-15T09:31:50.336Z,74.60
2023-02-15T09:34:19.133Z,71.78
2023-02-15T09:36:47.813Z,72.80
2023-02-15T09:39:26.396Z,68.43
2023-02-15T09:41:54.820Z,70.85
2023-02-15T09:44:34.918Z,70.38
2023-02-15T09:47:02.523Z,70.85
2023-02-15T09:49:32.764Z,73.70
2023-02-15T09:52:14.836Z,64.30
2023-02-15T09:54:42.700Z,66.07
2023-02-15T09:57:22.364Z,70.97
2023-02-15T10:00:00.181Z,62.15
2023-02-15T10:02:37.216Z,75.25
2023-02-15T10:05:04.857Z,69.10
2023-02-15T10:07:35.729Z,62.95
2023-02-15T10:10:24.123Z,59.20
2023-02-15T10:13:01.007Z,59.78
2023-02-15T10:15:56.033Z,59.40
2023-02-15T10:18:23.768Z,60.70
2023-02-15T10:20:58.856Z,55.08
2023-02-15T10:23:40.583Z,65.90
2023-02-15T10:26:08.423Z,53.97
2023-02-15T10:28:42.525Z,58.03
2023-02-15T10:31:10.492Z,59.67
2023-02-15T10:33:42.427Z,62.20
2023-02-15T10:36:20.264Z,61.97
2023-02-15T10:39:00.448Z,57.38
2023-02-15T10:41:28.286Z,58.97
2023-02-15T10:44:08.888Z,57.85
2023-02-15T10:49:18.464Z,57.80
2023-02-15T10:52:06.805Z,58.15
2023-02-15T10:54:40.965Z,54.63
2023-02-15T10:57:17.128Z,64.57
2023-02-15T11:00:04.116Z,57.38
2023-02-15T11:03:01.638Z,58.42
2023-02-15T11:05:29.095Z,53.75
2023-02-15T11:07:59.184Z,60.22
2023-02-15T11:10:41.135Z,51.30
2023-02-15T11:13:30.002Z,55.50
2023-02-15T11:16:00.945Z,63.17
2023-02-15T11:21:16.031Z,61.55
2023-02-15T11:23:47.035Z,57.72
2023-02-15T11:26:30.027Z,57.10
2023-02-15T11:29:01.332Z,55.92
2023-02-15T11:31:32.366Z,55.40
2023-02-15T11:34:03.214Z,55.33
2023-02-15T11:36:35.341Z,55.30
2023-02-15T11:39:11.771Z,57.05
2023-02-15T11:41:42.169Z,58.90
2023-02-15T11:44:14.234Z,56.97
2023-02-15T11:46:42.261Z,58.33
2023-02-15T11:49:23.454Z,54.65
2023-02-15T11:51:52.004Z,54.70
2023-02-15T11:54:21.676Z,53.40
2023-02-15T11:56:49.589Z,53.47
2023-02-15T11:59:23.295Z,52.65
2023-02-15T12:01:52.799Z,53.15
2023-02-15T12:04:20.290Z,56.38
2023-02-15T12:06:51.514Z,57.85
2023-02-15T12:09:27.982Z,59.20
2023-02-15T12:11:55.866Z,49.45
2023-02-15T12:14:23.434Z,54.90
2023-02-15T12:16:53.265Z,53.25
2023-02-15T12:19:21.199Z,75.53
2023-02-15T12:21:51.056Z,56.40
2023-02-15T12:24:38.060Z,55.83
2023-02-15T12:27:24.216Z,55.33
2023-02-15T12:30:06.992Z,51.25
2023-02-15T12:32:39.945Z,54.40
2023-02-15T12:35:19.539Z,54.35
2023-02-15T12:37:58.318Z,54.53
2023-02-15T12:40:31.021Z,54.50
2023-02-15T12:42:59.464Z,54.80
2023-02-15T12:45:32.441Z,54.90
2023-02-15T12:48:11.387Z,55.83
2023-02-15T12:50:39.522Z,56.90
2023-02-15T12:53:30.352Z,58.20
2023-02-15T12:55:59.293Z,56.58
2023-02-15T12:58:28.151Z,57.85
2023-02-15T13:00:57.211Z,54.35
2023-02-15T13:03:26.097Z,57.15
2023-02-15T13:05:54.996Z,56.17
2023-02-15T13:08:23.988Z,52.05
2023-02-15T13:10:54.847Z,58.47
2023-02-15T13:13:25.885Z,59.90
2023-02-15T13:15:58.725Z,51.67
2023-02-15T13:18:30.082Z,61.78
2023-02-15T13:20:58.094Z,54.92
2023-02-15T13:23:29.992Z,54.17
2023-02-15T13:26:00.001Z,56.60
2023-02-15T13:28:33.472Z,56.20
2023-02-15T13:31:01.667Z,51.85
2023-02-15T13:33:33.672Z,53.03
2023-02-15T13:36:12.943Z,59.15
2023-02-15T13:38:48.388Z,52.47
2023-02-15T13:41:22.561Z,56.67
2023-02-15T13:43:53.475Z,55.55
2023-02-15T13:46:25.003Z,55.63
2023-02-15T13:48:52.545Z,56.03
2023-02-15T13:51:20.112Z,54.95
2023-02-15T13:53:47.802Z,55.03
2023-02-15T13:56:26.281Z,54.13
2023-02-15T13:59:05.297Z,55.55
2023-02-15T14:01:40.154Z,53.17
2023-02-15T14:04:27.671Z,54.60
2023-02-15T14:06:55.537Z,55.03
2023-02-15T14:09:23.201Z,53.30
2023-02-15T14:11:57.216Z,59.28
2023-02-15T14:14:31.732Z,56.50
2023-02-15T14:17:12.002Z,57.22
2023-02-15T14:22:33.189Z,54.10
2023-02-15T14:25:15.848Z,57.20
2023-02-15T14:28:02.919Z,61.72
2023-02-15T14:30:39.905Z,57.80
2023-02-15T14:33:17.904Z,53.22
2023-02-15T14:35:47.641Z,60.55
2023-02-15T14:38:17.189Z,60.20
2023-02-15T14:41:04.597Z,53.20
2023-02-15T14:43:46.070Z,56.95
2023-02-15T14:46:26.357Z,59.60
2023-02-15T14:48:56.420Z,57.33
2023-02-15T14:51:48.469Z,55.55
2023-02-15T14:54:19.397Z,54.67
2023-02-15T14:56:47.385Z,59.65
2023-02-15T14:59:17.900Z,58.63
2023-02-15T15:01:55.018Z,59.97
2023-02-15T15:04:26.910Z,56.58
2023-02-15T15:07:04.101Z,56.28
2023-02-15T15:09:33.086Z,57.40
2023-02-15T15:12:23.248Z,57.25
2023-02-15T15:14:51.654Z,63.13
2023-02-15T15:17:39.679Z,57.80
2023-02-15T15:20:15.859Z,60.47
2023-02-15T15:22:47.133Z,56.83
2023-02-15T15:25:35.232Z,58.25
2023-02-15T15:28:04.360Z,61.78
2023-02-15T15:30:32.556Z,54.70
2023-02-15T15:33:19.795Z,57.35
2023-02-15T15:36:06.213Z,52.42
2023-02-15T15:38:41.687Z,59.97
2023-02-15T15:41:14.314Z,57.53
2023-02-15T15:43:57.853Z,59.25
2023-02-15T15:46:45.266Z,52.67
2023-02-15T15:49:18.191Z,56.90
2023-02-15T15:51:46.860Z,54.88
2023-02-15T15:54:19.886Z,55.83
2023-02-15T15:56:58.763Z,58.33
2023-02-15T15:59:28.371Z,50.42
2023-02-15T16:01:56.343Z,55.35
2023-02-15T16:04:31.015Z,57.53
2023-02-15T16:06:59.696Z,62.63
2023-02-15T16:09:29.341Z,62.88
2023-02-15T16:12:06.255Z,65.73
2023-02-15T16:14:37.328Z,63.97
2023-02-15T16:17:09.454Z,59.00
2023-02-15T16:19:40.976Z,58.53
2023-02-15T16:22:13.079Z,68.45
2023-02-15T16:24:45.714Z,58.63
2023-02-15T16:27:35.473Z,58.80
2023-02-15T16:30:22.155Z,57.17
2023-02-15T16:32:50.644Z,52.75
2023-02-15T16:35:19.170Z,58.92
2023-02-15T16:37:47.074Z,61.85
2023-02-15T16:40:26.589Z,59.53
2023-02-15T16:42:56.204Z,65.45
2023-02-15T16:45:28.206Z,68.60
2023-02-15T16:47:57.822Z,61.13
2023-02-15T16:50:28.079Z,63.90
2023-02-15T16:52:55.863Z,60.30
2023-02-15T16:55:30.430Z,61.80
2023-02-15T16:58:00.258Z,61.85
2023-02-15T17:00:30.078Z,66.93
2023-02-15T17:03:01.957Z,69.40
2023-02-15T17:05:33.882Z,61.55
2023-02-15T17:08:04.614Z,76.25
2023-02-15T17:10:32.208Z,60.75
2023-02-15T17:13:12.213Z,65.78
2023-02-15T17:15:41.398Z,70.20
2023-02-15T17:18:38.221Z,60.97
2023-02-15T17:21:15.630Z,66.18
2023-02-15T17:23:45.467Z,69.53
2023-02-15T17:26:16.626Z,65.55
2023-02-15T17:28:48.584Z,73.80
2023-02-15T17:31:18.216Z,65.57
2023-02-15T17:33:46.867Z,73.97
2023-02-15T17:36:17.717Z,66.03
2023-02-15T17:39:02.187Z,61.80
2023-02-15T17:41:31.396Z,69.53
2023-02-15T17:44:00.133Z,67.43
2023-02-15T17:46:28.736Z,64.60
2023-02-15T17:48:57.192Z,66.38
2023-02-15T17:51:24.935Z,64.38
2023-02-15T17:54:11.338Z,67.18
2023-02-15T17:56:41.046Z,61.55
2023-02-15T17:59:09.696Z,68.57
2023-02-15T18:01:57.037Z,65.38
2023-02-15T18:04:44.495Z,61.67
2023-02-15T18:07:32.641Z,66.03
2023-02-15T18:10:18.916Z,58.65
2023-02-15T18:12:46.694Z,64.18
2023-02-15T18:15:15.560Z,67.82
2023-02-15T18:17:47.892Z,64.53
2023-02-15T18:20:20.106Z,65.45
2023-02-15T18:22:47.991Z,66.47
2023-02-15T18:25:17.075Z,71.00
2023-02-15T18:27:45.429Z,60.95
2023-02-15T18:30:23.558Z,62.60
2023-02-15T18:32:52.793Z,69.15
2023-02-15T18:35:22.990Z,65.07
2023-02-15T18:37:51.866Z,65.97
2023-02-15T18:40:20.719Z,66.60
2023-02-15T18:42:49.617Z,65.15
2023-02-15T18:45:19.053Z,64.05
2023-02-15T18:47:47.129Z,66.93
2023-02-15T18:50:15.866Z,64.30
2023-02-15T18:52:45.805Z,61.83
2023-02-15T18:55:18.829Z,73.18
2023-02-15T18:57:47.461Z,70.30
2023-02-15T19:00:19.099Z,71.20
2023-02-15T19:02:47.145Z,65.65
2023-02-15T19:05:16.352Z,67.38
2023-02-15T19:07:48.650Z,68.55
2023-02-15T19:10:18.782Z,69.88
2023-02-15T19:12:46.754Z,66.03
2023-02-15T19:15:18.717Z,78.07
2023-02-15T19:17:47.076Z,71.50
2023-02-15T19:20:19.236Z,67.78
2023-02-15T19:22:48.524Z,74.53
2023-02-15T19:25:20.046Z,71.50
2023-02-15T19:27:48.049Z,69.65
2023-02-15T19:30:22.760Z,75.05
2023-02-15T19:32:50.632Z,69.35
2023-02-15T19:35:23.299Z,76.72
2023-02-15T19:37:53.269Z,80.13
2023-02-15T19:40:23.063Z,66.68
2023-02-15T19:42:50.626Z,72.50
2023-02-15T19:45:22.160Z,77.25
2023-02-15T19:47:50.229Z,73.93
2023-02-15T19:50:18.799Z,73.53
2023-02-15T19:52:47.445Z,73.30
2023-02-15T19:55:27.018Z,69.68
2023-02-15T19:57:55.012Z,74.85
2023-02-15T20:00:25.765Z,66.70
2023-02-15T20:05:21.628Z,76.22
2023-02-15T20:07:51.111Z,76.30
2023-02-15T20:10:22.700Z,74.15
2023-02-15T20:12:50.903Z,80.68
2023-02-15T20:15:19.835Z,76.57
2023-02-15T20:17:48.451Z,78.72
2023-02-15T20:20:17.377Z,86.22
2023-02-15T20:22:46.766Z,87.20
2023-02-15T20:25:22.337Z,77.85
2023-02-15T20:27:50.548Z,76.43
2023-02-15T20:30:24.063Z,80.80
2023-02-15T20:32:52.093Z,80.57
2023-02-15T20:35:21.106Z,79.20
2023-02-15T20:37:51.692Z,85.60
2023-02-15T20:40:23.244Z,77.55
2023-02-15T20:42:53.044Z,77.80
2023-02-15T20:45:25.987Z,80.13
2023-02-15T20:47:54.460Z,82.50
2023-02-15T20:50:26.451Z,81.00
2023-02-15T20:52:55.419Z,83.07
2023-02-15T20:55:26.375Z,88.03
2023-02-15T20:57:54.094Z,82.70
2023-02-15T21:00:24.123Z,84.95
2023-02-15T21:02:52.989Z,76.93
2023-02-15T21:05:22.579Z,84.88
2023-02-15T21:07:50.674Z,85.73
2023-02-15T21:10:21.321Z,77.53
2023-02-15T21:12:49.477Z,80.15
2023-02-15T21:15:32.218Z,92.43
2023-02-15T21:18:01.165Z,83.57
2023-02-15T21:20:30.152Z,82.55
2023-02-15T21:22:58.711Z,81.05
2023-02-15T21:25:36.534Z,80.85
2023-02-15T21:28:05.157Z,90.07
2023-02-15T21:30:32.758Z,91.13
2023-02-15T21:33:00.255Z,88.03
2023-02-15T21:35:30.025Z,88.28
2023-02-15T21:37:57.514Z,86.90
2023-02-15T21:40:27.774Z,84.32
2023-02-15T21:43:15.418Z,89.25
2023-02-15T21:46:01.616Z,85.43
2023-02-15T21:48:29.473Z,80.10
2023-02-15T21:51:15.910Z,82.15
2023-02-15T21:53:47.409Z,86.57
2023-02-15T21:56:16.894Z,85.25
2023-02-15T21:58:45.598Z,89.40
2023-02-15T22:01:24.367Z,90.40
2023-02-15T22:03:53.744Z,91.97
2023-02-15T22:06:21.509Z,91.47
2023-02-15T22:08:52.890Z,92.00
2023-02-15T22:11:22.746Z,91.20
2023-02-15T22:13:52.453Z,90.88
2023-02-15T22:16:21.338Z,95.03
2023-02-15T22:18:49.428Z,90.25
2023-02-15T22:21:18.196Z,99.68
2023-02-15T22:23:47.532Z,92.53
2023-02-15T22:26:25.741Z,90.40
2023-02-15T22:28:54.083Z,92.07
2023-02-15T22:31:23.919Z,90.43
2023-02-15T22:33:52.943Z,91.45
2023-02-15T22:36:26.282Z,91.88
2023-02-15T22:38:57.657Z,88.43
2023-02-15T22:41:27.846Z,88.97
2023-02-15T22:43:58.638Z,95.93
2023-02-15T22:46:26.910Z,90.15
2023-02-15T22:48:54.965Z,95.70
2023-02-15T22:51:25.938Z,93.30
2023-02-15T22:53:54.484Z,94.43
2023-02-15T22:56:28.318Z,88.35
2023-02-15T22:59:00.703Z,94.28
2023-02-15T23:01:33.521Z,85.32
2023-02-15T23:04:03.438Z,85.28
2023-02-15T23:09:00.983Z,92.13
2023-02-15T23:11:28.665Z,89.60
2023-02-15T23:13:56.455Z,89.30
2023-02-15T23:16:24.269Z,90.15
2023-02-15T23:18:52.366Z,80.55
2023-02-15T23:21:28.948Z,89.35
2023-02-15T23:23:58.956Z,87.57
2023-02-15T23:26:28.241Z,90.10
2023-02-15T23:28:56.534Z,84.90
2023-02-15T23:31:25.365Z,89.30
2023-02-15T23:33:53.772Z,88.80
2023-02-15T23:36:21.358Z,86.00
2023-02-15T23:38:49.761Z,89.20
2023-02-15T23:41:20.134Z,86.97
2023-02-15T23:43:52.438Z,83.15
2023-02-15T23:46:30.985Z,84.93
2023-02-15T23:48:59.878Z,87.35
2023-02-15T23:51:31.709Z,86.65
2023-02-15T23:54:00.298Z,86.38
2023-02-15T23:56:28.842Z,78.38
2023-02-15T23:58:56.489Z,87.10
